Main page
METAR-TAF:

METAR-TAF

Airports :

Valence-Chabeuil Airport

Valence, France

latitude: 44-54-58N, longitude: 4-58-06E, elevation: 160 m

Current weather observation

The report was made 4 hours and 30 minutes ago, at 18:00 UTC
Wind 4 kt from the South/Southeast
Temperature 7°C
Humidity 93%
Pressure 1020 hPa
Visibility 10 km or more
Few clouds at a height of 1000 ft
Scattered clouds at a height of 6000 ft
Broken clouds at a height of 7000 ft

METAR: LFLU 171800Z AUTO 15004KT 9999 FEW010 SCT060 BKN070 07/06 Q1020

Time: 23:30 (22:30 UTC)


TAF: missing

Weather observations and forecasts of more than 4000 airports (METAR and TAF reports).

The available stations are represented by yellow and red dots on the map.

Hover mouse over dot to see the name of the station.

Then click to see weather observations and forecasts.

To change the map : click on the green buttons with a black cross to zoom in, on the green button with a dash to zoom out, or on the green arrows for adjacent maps.


METAR-TAF: